Time,TemperatureF,DewpointF,PressureIn,WindDirection,WindDirectionDegrees,WindSpeedMPH,WindSpeedGustMPH,Humidity,HourlyPrecipIn,Conditions,Clouds,dailyrainin,SolarRadiationWatts/m^2,SoftwareType,DateUTC
2013-03-10 00:02:00,32.0,29.1,30.35,SSW,204,0.0,0.0,89,0.00,,,0.00,0.0,meteohub,2013-03-10 05:02:00,
2013-03-10 00:07:00,31.6,28.8,30.34,SSW,204,0.0,0.0,89,0.00,,,0.00,0.0,meteohub,2013-03-10 05:07:00,
2013-03-10 00:12:00,31.5,28.6,30.34,SSW,204,0.0,0.0,89,0.00,,,0.00,0.0,meteohub,2013-03-10 05:12:00,
2013-03-10 00:17:00,31.6,29.1,30.35,SSW,204,0.0,0.0,90,0.00,,,0.00,0.0,meteohub,2013-03-10 05:17:00,
2013-03-10 00:22:00,31.5,28.6,30.35,SSW,204,0.0,0.0,89,0.00,,,0.00,0.0,meteohub,2013-03-10 05:22:00,
2013-03-10 00:27:00,31.1,28.2,30.35,SSW,204,0.0,0.0,89,0.00,,,0.00,0.0,meteohub,2013-03-10 05:27:00,
2013-03-10 00:32:00,31.1,28.6,30.35,SSW,204,0.0,0.0,90,0.00,,,0.00,0.0,meteohub,2013-03-10 05:32:00,
2013-03-10 00:37:00,31.3,28.8,30.35,SSW,204,0.0,0.0,90,0.00,,,0.00,0.0,meteohub,2013-03-10 05:37:00,
2013-03-10 00:42:00,30.7,28.2,30.35,SSW,204,0.0,0.0,90,0.00,,,0.00,0.0,meteohub,2013-03-10 05:42:00,
2013-03-10 00:47:00,30.7,28.2,30.35,SSW,204,0.0,0.0,90,0.00,,,0.00,0.0,meteohub,2013-03-10 05:47:00,
2013-03-10 00:52:00,30.9,28.4,30.35,SSW,204,0.0,0.0,90,0.00,,,0.00,0.0,meteohub,2013-03-10 05:52:00,
2013-03-10 00:57:00,30.7,28.2,30.35,SSW,204,0.0,0.0,90,0.00,,,0.00,0.0,meteohub,2013-03-10 05:57:00,
2013-03-10 01:02:00,30.4,27.9,30.35,SSW,204,0.0,0.0,90,0.00,,,0.00,0.0,meteohub,2013-03-10 06:02:00,
2013-03-10 01:07:00,30.7,28.4,30.35,SSW,204,0.0,0.0,91,0.00,,,0.00,0.0,meteohub,2013-03-10 06:07:00,
2013-03-10 01:12:00,30.9,28.6,30.35,SSW,204,0.0,0.0,91,0.00,,,0.00,0.0,meteohub,2013-03-10 06:12:00,
2013-03-10 01:17:00,30.7,28.2,30.35,SSW,204,0.0,0.0,90,0.00,,,0.00,0.0,meteohub,2013-03-10 06:17:00,
2013-03-10 01:22:00,30.2,27.7,30.35,SSW,204,0.0,0.0,90,0.00,,,0.00,0.0,meteohub,2013-03-10 06:22:00,
2013-03-10 01:27:00,30.4,27.9,30.36,SSW,204,0.0,0.0,90,0.00,,,0.00,0.0,meteohub,2013-03-10 06:27:00,
2013-03-10 01:32:00,30.4,27.9,30.36,SSW,204,0.0,0.0,90,0.00,,,0.00,0.0,meteohub,2013-03-10 06:32:00,
2013-03-10 01:37:00,30.2,27.7,30.36,SSW,204,0.0,0.0,90,0.00,,,0.00,0.0,meteohub,2013-03-10 06:37:00,
2013-03-10 01:42:00,29.8,27.3,30.36,SSW,204,0.0,0.0,90,0.00,,,0.00,0.0,meteohub,2013-03-10 06:42:00,
2013-03-10 01:47:00,29.8,27.5,30.35,SSW,204,0.0,0.0,91,0.00,,,0.00,0.0,meteohub,2013-03-10 06:47:00,
2013-03-10 01:52:00,29.8,27.5,30.36,SSW,204,0.0,0.0,91,0.00,,,0.00,0.0,meteohub,2013-03-10 06:52:00,
2013-03-10 01:57:00,29.8,27.5,30.35,SSW,204,0.0,0.0,91,0.00,,,0.00,0.0,meteohub,2013-03-10 06:57:00,
2013-03-10 03:12:00,29.8,27.5,30.35,SSW,204,0.0,-999.0,91,-99.99,,,0.00,0.0,meteohub,2013-03-10 07:12:00,
2013-03-10 03:17:00,29.8,27.5,30.35,SSW,204,0.0,-999.0,91,-99.99,,,0.00,0.0,meteohub,2013-03-10 07:17:00,
2013-03-10 03:22:00,29.7,27.3,30.35,SSW,204,0.0,-999.0,91,-99.99,,,0.00,0.0,meteohub,2013-03-10 07:22:00,
2013-03-10 03:27:00,29.7,27.3,30.35,SSW,204,0.0,-999.0,91,-99.99,,,0.00,0.0,meteohub,2013-03-10 07:27:00,
2013-03-10 03:32:00,29.8,27.5,30.35,SSW,204,0.0,-999.0,91,-99.99,,,0.00,0.0,meteohub,2013-03-10 07:32:00,
2013-03-10 03:37:00,29.5,27.1,30.35,SSW,204,0.0,-999.0,91,-99.99,,,0.00,0.0,meteohub,2013-03-10 07:37:00,
2013-03-10 03:42:00,29.5,27.1,30.35,SSW,204,0.0,-999.0,91,-99.99,,,0.00,0.0,meteohub,2013-03-10 07:42:00,
2013-03-10 03:47:00,29.5,27.1,30.35,SSW,204,0.0,-999.0,91,-99.99,,,0.00,0.0,meteohub,2013-03-10 07:47:00,
2013-03-10 03:52:00,29.7,27.3,30.35,SSW,204,0.0,-999.0,91,-99.99,,,0.00,0.0,meteohub,2013-03-10 07:52:00,
2013-03-10 03:57:00,29.7,27.3,30.35,SSW,204,0.0,-999.0,91,-99.99,,,0.00,0.0,meteohub,2013-03-10 07:57:00,
2013-03-10 04:02:00,29.1,26.6,30.35,SSW,204,0.0,-999.0,90,-99.99,,,0.00,0.0,meteohub,2013-03-10 08:02:00,
2013-03-10 04:07:00,28.9,26.6,30.35,SSW,204,0.0,-999.0,91,-99.99,,,0.00,0.0,meteohub,2013-03-10 08:07:00,
2013-03-10 04:12:00,29.7,27.3,30.34,SSW,204,0.0,-999.0,91,-99.99,,,0.00,0.0,meteohub,2013-03-10 08:12:00,
2013-03-10 04:17:00,29.7,27.3,30.35,SSW,204,0.0,-999.0,91,-99.99,,,0.00,0.0,meteohub,2013-03-10 08:17:00,
2013-03-10 04:27:00,29.7,27.1,30.35,SSW,204,0.0,-999.0,90,-99.99,,,0.00,0.0,meteohub,2013-03-10 08:27:00,
2013-03-10 04:32:00,28.9,26.4,30.35,SSW,204,0.0,-999.0,90,-99.99,,,0.00,0.0,meteohub,2013-03-10 08:32:00,
2013-03-10 04:37:00,29.3,26.8,30.35,SSW,204,0.0,-999.0,90,-99.99,,,0.00,0.0,meteohub,2013-03-10 08:37:00,
2013-03-10 04:42:00,29.3,26.8,30.35,SSW,204,0.0,-999.0,90,-99.99,,,0.00,0.0,meteohub,2013-03-10 08:42:00,
2013-03-10 04:47:00,28.8,26.2,30.35,SSW,204,0.0,-999.0,90,-99.99,,,0.00,0.0,meteohub,2013-03-10 08:47:00,
2013-03-10 04:52:00,28.9,26.6,30.35,SSW,204,0.0,-999.0,91,-99.99,,,0.00,0.0,meteohub,2013-03-10 08:52:00,
2013-03-10 04:57:00,29.7,27.3,30.35,SSW,204,0.0,-999.0,91,-99.99,,,0.00,0.0,meteohub,2013-03-10 08:57:00,
2013-03-10 05:02:00,29.5,27.0,30.36,SSW,204,0.0,-999.0,90,-99.99,,,0.00,0.0,meteohub,2013-03-10 09:02:00,
2013-03-10 05:07:00,29.1,26.6,30.36,SSW,204,0.0,-999.0,90,-99.99,,,0.00,0.0,meteohub,2013-03-10 09:07:00,
2013-03-10 05:12:00,28.9,26.4,30.36,SSW,204,0.0,-999.0,90,-99.99,,,0.00,0.0,meteohub,2013-03-10 09:12:00,
2013-03-10 05:17:00,29.3,26.8,30.36,SSW,204,0.0,-999.0,90,-99.99,,,0.00,0.0,meteohub,2013-03-10 09:17:00,
2013-03-10 05:22:00,29.5,27.0,30.37,SSW,204,0.0,-999.0,90,-99.99,,,0.00,0.0,meteohub,2013-03-10 09:22:00,
2013-03-10 05:32:00,29.1,26.6,30.38,SSW,204,0.0,-999.0,90,-99.99,,,0.00,0.0,meteohub,2013-03-10 09:32:00,
2013-03-10 05:37:00,28.9,26.1,30.38,SSW,204,0.0,-999.0,89,-99.99,,,0.00,0.0,meteohub,2013-03-10 09:37:00,
2013-03-10 05:42:00,28.6,26.1,30.37,SSW,204,0.0,-999.0,90,-99.99,,,0.00,0.0,meteohub,2013-03-10 09:42:00,
2013-03-10 05:47:00,28.6,26.1,30.37,SSW,204,0.0,-999.0,90,-99.99,,,0.00,0.0,meteohub,2013-03-10 09:47:00,
2013-03-10 05:52:00,28.9,26.6,30.37,SSW,204,0.0,-999.0,91,-99.99,,,0.00,0.0,meteohub,2013-03-10 09:52:00,
2013-03-10 05:57:00,29.8,27.5,30.37,SSW,204,0.0,-999.0,91,-99.99,,,0.00,0.0,meteohub,2013-03-10 09:57:00,
2013-03-10 06:02:00,29.1,26.2,30.37,SSW,204,0.0,-999.0,89,-99.99,,,0.00,0.0,meteohub,2013-03-10 10:02:00,
2013-03-10 06:07:00,28.9,26.4,30.37,SSW,204,0.0,-999.0,90,-99.99,,,0.00,0.0,meteohub,2013-03-10 10:07:00,
2013-03-10 06:12:00,29.3,26.8,30.37,SSW,204,0.0,-999.0,90,-99.99,,,0.00,0.0,meteohub,2013-03-10 10:12:00,
2013-03-10 06:17:00,29.8,27.3,30.37,SSW,204,0.0,-999.0,90,-99.99,,,0.00,0.0,meteohub,2013-03-10 10:17:00,
2013-03-10 06:22:00,28.8,25.9,30.37,SSW,204,0.0,-999.0,89,-99.99,,,0.00,0.0,meteohub,2013-03-10 10:22:00,
2013-03-10 06:27:00,28.6,25.7,30.37,SSW,204,0.0,-999.0,89,-99.99,,,0.00,0.0,meteohub,2013-03-10 10:27:00,
2013-03-10 06:32:00,28.8,26.2,30.37,SSW,204,0.0,-999.0,90,-99.99,,,0.00,0.0,meteohub,2013-03-10 10:32:00,
2013-03-10 06:37:00,29.3,26.8,30.37,SSW,204,0.0,-999.0,90,-99.99,,,0.00,0.0,meteohub,2013-03-10 10:37:00,
2013-03-10 06:42:00,28.9,26.1,30.37,SSW,204,0.0,-999.0,89,-99.99,,,0.00,0.0,meteohub,2013-03-10 10:42:00,
2013-03-10 06:47:00,29.1,26.6,30.37,SSW,204,0.0,-999.0,90,-99.99,,,0.00,0.0,meteohub,2013-03-10 10:47:00,
2013-03-10 06:52:00,29.1,26.2,30.38,SSW,204,0.0,-999.0,89,-99.99,,,0.00,0.0,meteohub,2013-03-10 10:52:00,
2013-03-10 06:57:00,28.2,25.3,30.38,SSW,204,0.0,-999.0,89,-99.99,,,0.00,0.0,meteohub,2013-03-10 10:57:00,
2013-03-10 07:02:00,28.6,26.1,30.38,SSW,204,0.0,-999.0,90,-99.99,,,0.00,0.0,meteohub,2013-03-10 11:02:00,
2013-03-10 07:07:00,28.6,25.7,30.38,SSW,204,0.0,-999.0,89,-99.99,,,0.00,0.0,meteohub,2013-03-10 11:07:00,
2013-03-10 07:12:00,28.0,25.2,30.38,SSW,204,0.0,-999.0,89,-99.99,,,0.00,0.0,meteohub,2013-03-10 11:12:00,
2013-03-10 07:17:00,28.0,25.5,30.38,SSW,204,0.0,0.0,90,-99.99,,,0.00,5.0,meteohub,2013-03-10 11:17:00,
2013-03-10 07:22:00,28.4,25.9,30.38,SSW,204,0.0,0.0,90,-99.99,,,0.00,9.0,meteohub,2013-03-10 11:22:00,
2013-03-10 07:27:00,28.2,25.7,30.39,SSW,204,0.0,0.0,90,-99.99,,,0.00,11.0,meteohub,2013-03-10 11:27:00,
2013-03-10 07:32:00,28.0,25.5,30.39,SSW,204,0.0,0.0,90,-99.99,,,0.00,14.0,meteohub,2013-03-10 11:32:00,
2013-03-10 07:37:00,28.2,25.9,30.39,SSW,204,0.0,0.0,91,-99.99,,,0.00,18.0,meteohub,2013-03-10 11:37:00,
2013-03-10 07:42:00,28.8,26.4,30.39,SSW,204,0.0,0.0,91,-99.99,,,0.00,21.0,meteohub,2013-03-10 11:42:00,
2013-03-10 07:47:00,29.5,27.1,30.39,SSW,204,0.0,0.0,91,-99.99,,,0.00,23.0,meteohub,2013-03-10 11:47:00,
2013-03-10 07:52:00,29.3,26.8,30.39,SSW,204,0.0,0.0,90,-99.99,,,0.00,25.0,meteohub,2013-03-10 11:52:00,
2013-03-10 07:57:00,29.5,26.6,30.39,SSW,204,0.0,0.0,89,-99.99,,,0.00,28.0,meteohub,2013-03-10 11:57:00,
2013-03-10 08:02:00,28.9,26.4,30.39,SSW,204,0.0,0.0,90,0.00,,,0.00,30.0,meteohub,2013-03-10 12:02:00,
2013-03-10 08:07:00,29.7,27.3,30.40,SSW,204,0.0,0.0,91,0.00,,,0.00,35.0,meteohub,2013-03-10 12:07:00,
2013-03-10 08:12:00,29.7,27.1,30.40,SSW,204,0.0,0.0,90,0.00,,,0.00,33.0,meteohub,2013-03-10 12:12:00,
2013-03-10 08:17:00,29.7,27.1,30.40,SSW,204,0.0,0.0,90,0.00,,,0.00,44.0,meteohub,2013-03-10 12:17:00,
2013-03-10 08:22:00,30.4,28.0,30.40,SSW,204,0.0,0.0,91,0.00,,,0.00,53.0,meteohub,2013-03-10 12:22:00,
2013-03-10 08:27:00,30.6,28.2,30.40,SSW,204,0.0,0.0,91,0.00,,,0.00,83.0,meteohub,2013-03-10 12:27:00,
2013-03-10 08:32:00,30.6,28.2,30.40,SSW,204,0.0,0.0,91,0.00,,,0.00,86.0,meteohub,2013-03-10 12:32:00,
2013-03-10 08:37:00,31.3,28.9,30.40,SSW,204,0.0,0.0,91,0.00,,,0.00,123.0,meteohub,2013-03-10 12:37:00,
2013-03-10 08:42:00,31.6,29.3,30.40,SSW,204,0.0,0.0,91,0.00,,,0.00,107.0,meteohub,2013-03-10 12:42:00,
2013-03-10 08:47:00,32.4,30.4,30.40,SSW,204,0.0,0.0,92,0.00,,,0.00,130.0,meteohub,2013-03-10 12:47:00,
2013-03-10 08:52:00,33.1,31.1,30.40,SSW,204,0.0,0.0,92,0.00,,,0.00,121.0,meteohub,2013-03-10 12:52:00,
2013-03-10 08:57:00,33.6,31.3,30.40,SSW,204,0.0,0.0,91,0.00,,,0.00,95.0,meteohub,2013-03-10 12:57:00,
2013-03-10 09:02:00,34.5,31.8,30.40,SSW,204,0.0,0.0,90,0.00,,,0.00,139.0,meteohub,2013-03-10 13:02:00,
2013-03-10 09:07:00,35.1,32.2,30.40,SSW,204,0.0,0.0,89,0.00,,,0.00,160.0,meteohub,2013-03-10 13:07:00,
2013-03-10 09:17:00,35.8,32.5,30.40,North,5,2.0,3.0,88,0.01,,,0.01,74.0,meteohub,2013-03-10 13:17:00,
2013-03-10 09:22:00,36.1,32.7,30.40,North,5,0.0,3.0,87,0.01,,,0.01,248.0,meteohub,2013-03-10 13:22:00,
2013-03-10 09:27:00,36.3,32.5,30.40,North,351,2.0,3.0,86,0.01,,,0.01,97.0,meteohub,2013-03-10 13:27:00,
2013-03-10 09:32:00,36.1,32.4,30.40,NNE,20,2.0,4.0,86,0.01,,,0.01,105.0,meteohub,2013-03-10 13:32:00,
2013-03-10 09:37:00,36.3,32.5,30.40,NNE,28,2.0,5.0,86,0.01,,,0.01,239.0,meteohub,2013-03-10 13:37:00,
2013-03-10 09:42:00,36.9,33.1,30.40,NNE,20,3.0,5.0,86,0.01,,,0.01,262.0,meteohub,2013-03-10 13:42:00,
2013-03-10 09:47:00,37.4,33.1,30.40,NNE,27,1.0,5.0,84,0.01,,,0.01,336.0,meteohub,2013-03-10 13:47:00,
2013-03-10 09:52:00,37.8,33.4,30.40,NE,52,4.0,5.0,84,0.01,,,0.01,185.0,meteohub,2013-03-10 13:52:00,
2013-03-10 09:57:00,37.8,33.1,30.40,NNE,17,3.0,5.0,83,0.01,,,0.01,158.0,meteohub,2013-03-10 13:57:00,
2013-03-10 10:02:00,37.8,33.1,30.40,NNE,20,4.0,6.0,83,0.01,,,0.01,436.0,meteohub,2013-03-10 14:02:00,
2013-03-10 10:07:00,37.8,32.7,30.41,NNE,23,5.0,6.0,82,0.01,,,0.01,294.0,meteohub,2013-03-10 14:07:00,
2013-03-10 10:12:00,37.9,32.9,30.41,NNE,24,4.0,7.0,82,0.00,,,0.01,251.0,meteohub,2013-03-10 14:12:00,
2013-03-10 10:17:00,37.9,32.9,30.41,NNE,30,5.0,7.0,82,0.00,,,0.01,357.0,meteohub,2013-03-10 14:17:00,
2013-03-10 10:22:00,37.9,32.9,30.41,NE,37,5.0,7.0,82,0.00,,,0.01,413.0,meteohub,2013-03-10 14:22:00,
2013-03-10 10:27:00,38.7,33.3,30.41,NNE,30,6.0,7.0,81,0.00,,,0.01,497.0,meteohub,2013-03-10 14:27:00,
2013-03-10 10:32:00,38.5,33.1,30.41,NNE,24,5.0,7.0,81,0.00,,,0.01,510.0,meteohub,2013-03-10 14:32:00,
2013-03-10 10:37:00,38.7,33.3,30.40,NNE,16,6.0,8.0,81,0.00,,,0.01,475.0,meteohub,2013-03-10 14:37:00,
2013-03-10 10:42:00,38.8,33.3,30.40,NNE,31,4.0,8.0,80,0.00,,,0.01,434.0,meteohub,2013-03-10 14:42:00,
2013-03-10 10:47:00,39.0,33.4,30.40,ESE,119,0.0,7.0,80,0.00,,,0.01,452.0,meteohub,2013-03-10 14:47:00,
2013-03-10 10:52:00,40.5,34.2,30.40,NNE,28,2.0,7.0,78,0.00,,,0.01,585.0,meteohub,2013-03-10 14:52:00,
2013-03-10 11:02:00,41.0,33.6,30.40,NNE,19,6.0,7.0,75,0.00,,,0.01,621.0,meteohub,2013-03-10 15:02:00,
2013-03-10 11:07:00,40.6,33.3,30.40,NNE,28,3.0,7.0,75,0.00,,,0.01,638.0,meteohub,2013-03-10 15:07:00,
2013-03-10 11:12:00,40.1,33.1,30.40,East,98,1.0,7.0,76,0.00,,,0.01,650.0,meteohub,2013-03-10 15:12:00,
2013-03-10 11:17:00,41.0,33.4,30.40,North,355,1.0,7.0,74,0.00,,,0.01,666.0,meteohub,2013-03-10 15:17:00,
2013-03-10 11:22:00,41.7,34.0,30.40,ENE,77,1.0,6.0,74,0.00,,,0.01,675.0,meteohub,2013-03-10 15:22:00,
2013-03-10 11:27:00,41.2,33.4,30.39,NE,39,5.0,6.0,74,0.00,,,0.01,682.0,meteohub,2013-03-10 15:27:00,
2013-03-10 11:32:00,40.5,33.4,30.39,NNE,27,6.0,6.0,76,0.00,,,0.01,687.0,meteohub,2013-03-10 15:32:00,
2013-03-10 11:37:00,39.7,33.4,30.40,NNE,24,7.0,8.0,78,0.00,,,0.01,696.0,meteohub,2013-03-10 15:37:00,
2013-03-10 11:42:00,39.0,33.1,30.39,NNE,21,4.0,8.0,79,0.00,,,0.01,703.0,meteohub,2013-03-10 15:42:00,
2013-03-10 11:47:00,38.8,32.9,30.39,NNE,19,5.0,8.0,79,0.00,,,0.01,703.0,meteohub,2013-03-10 15:47:00,
2013-03-10 11:52:00,39.4,33.4,30.39,NNE,21,5.0,8.0,79,0.00,,,0.01,715.0,meteohub,2013-03-10 15:52:00,
2013-03-10 11:57:00,38.8,32.9,30.40,NNE,24,8.0,8.0,79,0.00,,,0.01,719.0,meteohub,2013-03-10 15:57:00,
2013-03-10 12:02:00,38.7,33.1,30.40,NNE,24,6.0,8.0,80,0.00,,,0.01,724.0,meteohub,2013-03-10 16:02:00,
2013-03-10 12:07:00,38.5,33.1,30.40,NNE,19,6.0,8.0,81,0.00,,,0.01,729.0,meteohub,2013-03-10 16:07:00,
2013-03-10 12:12:00,38.3,32.9,30.40,NNE,13,6.0,9.0,81,0.00,,,0.01,737.0,meteohub,2013-03-10 16:12:00,
2013-03-10 12:22:00,38.5,33.4,30.40,North,11,6.0,9.0,82,0.00,,,0.01,745.0,meteohub,2013-03-10 16:22:00,
2013-03-10 12:27:00,38.5,33.1,30.40,NE,36,5.0,9.0,81,0.00,,,0.01,747.0,meteohub,2013-03-10 16:27:00,
2013-03-10 12:32:00,38.7,33.1,30.39,NNE,20,5.0,8.0,80,0.00,,,0.01,744.0,meteohub,2013-03-10 16:32:00,
2013-03-10 12:37:00,39.4,33.1,30.39,NNE,28,2.0,8.0,78,0.00,,,0.01,747.0,meteohub,2013-03-10 16:37:00,
2013-03-10 12:42:00,39.6,33.6,30.39,NNE,30,3.0,7.0,79,0.00,,,0.01,747.0,meteohub,2013-03-10 16:42:00,
2013-03-10 12:47:00,39.6,33.6,30.39,NNE,24,6.0,7.0,79,0.00,,,0.01,751.0,meteohub,2013-03-10 16:47:00,
2013-03-10 12:52:00,39.4,33.4,30.38,NNE,23,7.0,7.0,79,0.00,,,0.01,749.0,meteohub,2013-03-10 16:52:00,
2013-03-10 12:57:00,39.4,33.4,30.38,NNE,17,5.0,7.0,79,0.00,,,0.01,744.0,meteohub,2013-03-10 16:57:00,
2013-03-10 13:02:00,39.4,33.4,30.38,NNE,17,6.0,7.0,79,0.00,,,0.01,735.0,meteohub,2013-03-10 17:02:00,
2013-03-10 13:07:00,39.0,33.4,30.38,NNE,21,5.0,7.0,80,0.00,,,0.01,751.0,meteohub,2013-03-10 17:07:00,
2013-03-10 13:12:00,39.6,34.0,30.38,NNE,25,5.0,7.0,80,0.00,,,0.01,754.0,meteohub,2013-03-10 17:12:00,
2013-03-10 13:17:00,39.7,33.8,30.37,NNE,16,5.0,7.0,79,0.00,,,0.01,754.0,meteohub,2013-03-10 17:17:00,
2013-03-10 13:22:00,39.7,34.2,30.38,NNE,16,5.0,7.0,80,0.00,,,0.01,756.0,meteohub,2013-03-10 17:22:00,
2013-03-10 13:27:00,39.6,34.2,30.38,NNE,20,6.0,7.0,81,0.00,,,0.01,752.0,meteohub,2013-03-10 17:27:00,
2013-03-10 13:32:00,39.6,34.2,30.37,NNE,13,5.0,9.0,81,0.00,,,0.01,751.0,meteohub,2013-03-10 17:32:00,
2013-03-10 13:37:00,39.7,34.2,30.37,NNE,15,6.0,9.0,80,0.00,,,0.01,738.0,meteohub,2013-03-10 17:37:00,
2013-03-10 13:47:00,40.1,34.5,30.37,NNE,26,5.0,7.0,80,0.00,,,0.01,737.0,meteohub,2013-03-10 17:47:00,
2013-03-10 13:52:00,40.3,34.3,30.36,NNE,26,6.0,7.0,79,0.00,,,0.01,731.0,meteohub,2013-03-10 17:52:00,
2013-03-10 14:02:00,40.6,34.7,30.36,NNE,20,6.0,7.0,79,0.00,,,0.01,729.0,meteohub,2013-03-10 18:02:00,
2013-03-10 14:07:00,40.8,34.9,30.36,NNE,19,5.0,7.0,79,0.00,,,0.01,722.0,meteohub,2013-03-10 18:07:00,
2013-03-10 14:12:00,41.2,34.9,30.36,NNE,24,4.0,7.0,78,0.00,,,0.01,719.0,meteohub,2013-03-10 18:12:00,
2013-03-10 14:17:00,41.4,34.7,30.36,NNE,26,6.0,7.0,77,0.00,,,0.01,714.0,meteohub,2013-03-10 18:17:00,
2013-03-10 14:22:00,41.5,34.9,30.35,NNE,21,5.0,7.0,77,0.00,,,0.01,707.0,meteohub,2013-03-10 18:22:00,
2013-03-10 14:32:00,40.8,34.2,30.36,NNE,17,7.0,10.0,77,0.00,,,0.01,694.0,meteohub,2013-03-10 18:32:00,
2013-03-10 14:37:00,41.0,35.1,30.36,NNE,13,5.0,10.0,79,0.00,,,0.01,686.0,meteohub,2013-03-10 18:37:00,
2013-03-10 14:42:00,41.4,34.7,30.36,NNE,12,7.0,9.0,77,0.00,,,0.01,679.0,meteohub,2013-03-10 18:42:00,
2013-03-10 14:47:00,40.8,34.5,30.36,North,5,6.0,9.0,78,0.00,,,0.01,664.0,meteohub,2013-03-10 18:47:00,
2013-03-10 14:52:00,40.6,34.0,30.36,NNE,17,5.0,8.0,77,0.00,,,0.01,640.0,meteohub,2013-03-10 18:52:00,
2013-03-10 14:57:00,41.4,35.1,30.36,NNE,18,5.0,8.0,78,0.00,,,0.01,650.0,meteohub,2013-03-10 18:57:00,
2013-03-10 15:02:00,41.2,34.5,30.36,NNE,12,6.0,8.0,77,0.00,,,0.01,642.0,meteohub,2013-03-10 19:02:00,
2013-03-10 15:07:00,41.5,35.2,30.35,NNE,19,4.0,8.0,78,0.00,,,0.01,629.0,meteohub,2013-03-10 19:07:00,
2013-03-10 15:12:00,41.9,34.5,30.35,NNE,19,4.0,7.0,75,0.00,,,0.01,621.0,meteohub,2013-03-10 19:12:00,
2013-03-10 15:17:00,41.5,34.9,30.35,North,9,5.0,7.0,77,0.00,,,0.01,612.0,meteohub,2013-03-10 19:17:00,
2013-03-10 15:22:00,41.5,34.9,30.35,North,9,5.0,7.0,77,0.00,,,0.01,601.0,meteohub,2013-03-10 19:22:00,
2013-03-10 15:27:00,41.5,34.5,30.35,North,5,6.0,7.0,76,0.00,,,0.01,596.0,meteohub,2013-03-10 19:27:00,
2013-03-10 15:32:00,41.5,34.5,30.36,North,10,6.0,7.0,76,0.00,,,0.01,547.0,meteohub,2013-03-10 19:32:00,
2013-03-10 15:37:00,41.5,34.5,30.35,NNE,15,4.0,7.0,76,0.00,,,0.01,543.0,meteohub,2013-03-10 19:37:00,
2013-03-10 15:42:00,41.9,34.9,30.35,NNE,20,4.0,7.0,76,0.00,,,0.01,540.0,meteohub,2013-03-10 19:42:00,
2013-03-10 15:47:00,41.5,34.2,30.35,NNE,14,4.0,7.0,75,0.00,,,0.01,547.0,meteohub,2013-03-10 19:47:00,
2013-03-10 15:57:00,41.4,34.7,30.35,NNE,19,3.0,7.0,77,0.00,,,0.01,519.0,meteohub,2013-03-10 19:57:00,
2013-03-10 16:07:00,41.4,35.1,30.35,North,5,6.0,6.0,78,0.00,,,0.01,497.0,meteohub,2013-03-10 20:07:00,
2013-03-10 16:12:00,41.5,35.2,30.35,NNE,14,5.0,6.0,78,0.00,,,0.01,480.0,meteohub,2013-03-10 20:12:00,
2013-03-10 16:17:00,41.7,35.8,30.35,North,5,4.0,6.0,79,0.00,,,0.01,471.0,meteohub,2013-03-10 20:17:00,
2013-03-10 16:22:00,41.9,35.2,30.35,NNE,17,3.0,6.0,77,0.00,,,0.01,464.0,meteohub,2013-03-10 20:22:00,
2013-03-10 16:27:00,42.8,35.1,30.34,NNE,15,2.0,6.0,74,0.00,,,0.01,455.0,meteohub,2013-03-10 20:27:00,
2013-03-10 16:37:00,43.3,35.2,30.34,North,0,2.0,4.0,73,0.00,,,0.01,404.0,meteohub,2013-03-10 20:37:00,
2013-03-10 16:47:00,42.6,34.9,30.34,NNW,345,3.0,4.0,74,0.00,,,0.01,148.0,meteohub,2013-03-10 20:47:00,
2013-03-10 16:57:00,42.4,35.8,30.34,NNE,17,3.0,6.0,77,0.00,,,0.01,311.0,meteohub,2013-03-10 20:57:00,
2013-03-10 17:02:00,42.4,35.4,30.35,North,350,2.0,6.0,76,0.00,,,0.01,253.0,meteohub,2013-03-10 21:02:00,
2013-03-10 17:07:00,43.0,35.6,30.34,NE,37,2.0,6.0,75,0.00,,,0.01,216.0,meteohub,2013-03-10 21:07:00,
2013-03-10 17:12:00,44.2,35.4,30.34,SW,228,3.0,5.0,71,0.00,,,0.01,132.0,meteohub,2013-03-10 21:12:00,
2013-03-10 17:22:00,44.2,35.1,30.33,SSE,167,5.0,7.0,70,0.00,,,0.01,171.0,meteohub,2013-03-10 21:22:00,
2013-03-10 17:32:00,43.3,34.9,30.33,SE,138,3.0,8.0,72,0.00,,,0.01,167.0,meteohub,2013-03-10 21:32:00,
2013-03-10 17:37:00,43.2,34.7,30.33,SSW,208,3.0,7.0,72,0.00,,,0.01,98.0,meteohub,2013-03-10 21:37:00,
2013-03-10 17:42:00,43.2,34.7,30.33,WSW,250,1.0,8.0,72,0.00,,,0.01,127.0,meteohub,2013-03-10 21:42:00,
2013-03-10 17:52:00,42.3,34.2,30.33,SW,215,2.0,7.0,73,0.00,,,0.01,62.0,meteohub,2013-03-10 21:52:00,
2013-03-10 18:02:00,41.4,33.6,30.33,South,170,4.0,8.0,74,0.00,,,0.01,47.0,meteohub,2013-03-10 22:02:00,
2013-03-10 18:07:00,41.0,33.6,30.33,South,180,3.0,8.0,75,0.00,,,0.01,42.0,meteohub,2013-03-10 22:07:00,
2013-03-10 18:17:00,40.5,33.4,30.34,SSE,147,0.0,10.0,76,0.00,,,0.01,33.0,meteohub,2013-03-10 22:17:00,
2013-03-10 18:22:00,40.1,33.4,30.34,SE,140,3.0,9.0,77,0.00,,,0.01,30.0,meteohub,2013-03-10 22:22:00,
2013-03-10 18:27:00,39.7,33.1,30.34,SW,216,2.0,9.0,77,0.00,,,0.01,26.0,meteohub,2013-03-10 22:27:00,
2013-03-10 18:32:00,39.6,32.9,30.34,South,181,2.0,9.0,77,0.00,,,0.01,23.0,meteohub,2013-03-10 22:32:00,
2013-03-10 18:37:00,39.2,32.9,30.34,SSW,192,2.0,9.0,78,0.00,,,0.01,19.0,meteohub,2013-03-10 22:37:00,
2013-03-10 18:42:00,39.0,33.1,30.34,South,182,1.0,9.0,79,0.00,,,0.01,16.0,meteohub,2013-03-10 22:42:00,
2013-03-10 18:52:00,38.7,33.1,30.34,South,176,0.0,9.0,80,0.00,,,0.01,5.0,meteohub,2013-03-10 22:52:00,
2013-03-10 18:57:00,38.5,32.9,30.34,SSE,159,3.0,9.0,80,0.00,,,0.01,0.0,meteohub,2013-03-10 22:57:00,
2013-03-10 19:02:00,38.1,32.5,30.34,South,178,2.0,9.0,80,0.00,,,0.01,0.0,meteohub,2013-03-10 23:02:00,
2013-03-10 19:10:00,37.9,32.4,30.35,SSW,202,3.0,7.0,80,0.00,,,0.01,0.0,meteohub,2013-03-10 23:10:00,
2013-03-10 19:17:00,37.8,32.5,30.35,South,178,0.0,9.0,81,0.00,,,0.01,0.0,meteohub,2013-03-10 23:17:00,
2013-03-10 19:22:00,37.6,32.4,30.35,ESE,121,0.0,9.0,81,0.00,,,0.01,0.0,meteohub,2013-03-10 23:22:00,
2013-03-10 19:27:00,37.4,32.2,30.35,SSW,192,2.0,7.0,81,0.00,,,0.01,0.0,meteohub,2013-03-10 23:27:00,
2013-03-10 19:32:00,37.4,32.4,30.36,South,183,0.0,5.0,82,0.00,,,0.01,0.0,meteohub,2013-03-10 23:32:00,
2013-03-10 19:42:00,37.0,32.0,30.36,SSW,199,0.0,2.0,82,0.00,,,0.01,0.0,meteohub,2013-03-10 23:42:00,
2013-03-10 19:47:00,37.0,32.4,30.36,SSE,165,1.0,2.0,83,0.00,,,0.01,0.0,meteohub,2013-03-10 23:47:00,
2013-03-10 19:52:00,36.9,32.2,30.36,SSW,193,0.0,3.0,83,0.00,,,0.01,0.0,meteohub,2013-03-10 23:52:00,
2013-03-10 19:57:00,36.9,32.2,30.36,South,184,1.0,4.0,83,0.00,,,0.01,0.0,meteohub,2013-03-10 23:57:00,
2013-03-10 20:07:00,36.7,32.4,30.35,South,186,0.0,3.0,84,0.00,,,0.01,0.0,meteohub,2013-03-11 00:07:00,
2013-03-10 20:12:00,36.7,32.4,30.35,SSW,211,2.0,4.0,84,0.00,,,0.01,0.0,meteohub,2013-03-11 00:12:00,
2013-03-10 20:17:00,36.5,32.2,30.35,ESE,112,1.0,4.0,84,0.00,,,0.01,0.0,meteohub,2013-03-11 00:17:00,
2013-03-10 20:22:00,36.3,32.0,30.35,South,180,2.0,4.0,84,0.00,,,0.01,0.0,meteohub,2013-03-11 00:22:00,
2013-03-10 20:32:00,36.3,32.0,30.35,South,186,0.0,4.0,84,0.00,,,0.01,0.0,meteohub,2013-03-11 00:32:00,
2013-03-10 20:42:00,36.1,32.0,30.35,South,181,0.0,4.0,85,0.00,,,0.01,0.0,meteohub,2013-03-11 00:42:00,
2013-03-10 20:47:00,36.1,32.0,30.35,South,181,0.0,4.0,85,0.00,,,0.01,0.0,meteohub,2013-03-11 00:47:00,
2013-03-10 20:52:00,36.1,32.0,30.35,South,184,0.0,4.0,85,0.00,,,0.01,0.0,meteohub,2013-03-11 00:52:00,
2013-03-10 21:02:00,36.3,32.2,30.35,South,183,0.0,3.0,85,0.00,,,0.01,0.0,meteohub,2013-03-11 01:02:00,
2013-03-10 21:12:00,36.3,32.2,30.35,South,183,0.0,2.0,85,0.00,,,0.01,0.0,meteohub,2013-03-11 01:12:00,
2013-03-10 21:17:00,36.3,32.2,30.36,South,183,0.0,2.0,85,0.00,,,0.01,0.0,meteohub,2013-03-11 01:17:00,
2013-03-10 21:22:00,36.3,32.2,30.35,South,183,0.0,2.0,85,0.00,,,0.01,0.0,meteohub,2013-03-11 01:22:00,
2013-03-10 21:27:00,36.5,32.4,30.35,South,183,0.0,3.0,85,0.00,,,0.01,0.0,meteohub,2013-03-11 01:27:00,
2013-03-10 21:32:00,36.7,32.5,30.36,South,183,0.0,3.0,85,0.00,,,0.01,0.0,meteohub,2013-03-11 01:32:00,
2013-03-10 21:37:00,36.9,32.7,30.36,South,183,0.0,2.0,85,0.00,,,0.01,0.0,meteohub,2013-03-11 01:37:00,
2013-03-10 21:42:00,36.9,32.7,30.36,South,188,2.0,2.0,85,0.00,,,0.01,0.0,meteohub,2013-03-11 01:42:00,
2013-03-10 21:47:00,36.7,32.5,30.36,South,184,0.0,4.0,85,0.00,,,0.01,0.0,meteohub,2013-03-11 01:47:00,
2013-03-10 21:57:00,36.7,32.5,30.35,SE,140,1.0,4.0,85,0.00,,,0.01,0.0,meteohub,2013-03-11 01:57:00,
2013-03-10 22:07:00,36.9,32.7,30.35,SE,140,0.0,2.0,85,0.00,,,0.01,0.0,meteohub,2013-03-11 02:07:00,
2013-03-10 22:12:00,36.9,32.7,30.35,SE,140,0.0,2.0,85,0.00,,,0.01,0.0,meteohub,2013-03-11 02:12:00,
2013-03-10 22:22:00,37.0,32.9,30.35,SE,140,1.0,1.0,85,0.00,,,0.01,0.0,meteohub,2013-03-11 02:22:00,
2013-03-10 22:27:00,37.0,32.9,30.34,SE,142,0.0,2.0,85,0.00,,,0.01,0.0,meteohub,2013-03-11 02:27:00,
2013-03-10 22:32:00,37.0,32.9,30.34,SSW,204,1.0,2.0,85,0.00,,,0.01,0.0,meteohub,2013-03-11 02:32:00,
2013-03-10 22:42:00,37.2,33.1,30.33,South,174,0.0,5.0,85,0.00,,,0.01,0.0,meteohub,2013-03-11 02:42:00,
2013-03-10 22:47:00,37.2,33.1,30.33,South,174,0.0,3.0,85,0.00,,,0.01,0.0,meteohub,2013-03-11 02:47:00,
2013-03-10 22:57:00,37.2,33.4,30.32,SSE,151,0.0,3.0,86,0.00,,,0.01,0.0,meteohub,2013-03-11 02:57:00,
2013-03-10 23:02:00,37.2,33.4,30.33,SW,224,0.0,5.0,86,0.00,,,0.01,0.0,meteohub,2013-03-11 03:02:00,
2013-03-10 23:07:00,37.2,33.1,30.32,SSE,159,1.0,5.0,85,0.00,,,0.01,0.0,meteohub,2013-03-11 03:07:00,
2013-03-10 23:12:00,37.2,33.4,30.33,SSE,159,0.0,5.0,86,0.00,,,0.01,0.0,meteohub,2013-03-11 03:12:00,
2013-03-10 23:17:00,37.2,33.4,30.33,SW,225,1.0,5.0,86,0.00,,,0.01,0.0,meteohub,2013-03-11 03:17:00,
2013-03-10 23:22:00,37.2,33.4,30.33,South,188,2.0,5.0,86,0.00,,,0.01,0.0,meteohub,2013-03-11 03:22:00,
2013-03-10 23:27:00,37.2,33.4,30.33,South,188,0.0,2.0,86,0.00,,,0.01,0.0,meteohub,2013-03-11 03:27:00,
2013-03-10 23:32:00,37.2,33.4,30.33,South,188,0.0,2.0,86,0.00,,,0.01,0.0,meteohub,2013-03-11 03:32:00,
2013-03-10 23:37:00,37.4,33.6,30.34,SSW,213,0.0,2.0,86,0.00,,,0.01,0.0,meteohub,2013-03-11 03:37:00,
2013-03-10 23:42:00,37.4,33.6,30.34,SSW,213,0.0,2.0,86,0.00,,,0.01,0.0,meteohub,2013-03-11 03:42:00,
2013-03-10 23:52:00,37.4,33.6,30.34,SSW,213,0.0,1.0,86,0.00,,,0.01,0.0,meteohub,2013-03-11 03:52:00,
2013-03-10 23:57:00,37.4,33.6,30.34,SSW,213,0.0,0.0,86,0.00,,,0.01,0.0,meteohub,2013-03-11 03:57:00,